Time;durP1;ratioP1;P1;durP2;ratioP2;P2;SDS_P1;SDS_P2;PMS_P1;PMS_P2;Temp;Humidity;BMP_temperature;BMP_pressure;BME280_temperature;BME280_humidity;BME280_pressure;Samples;Min_cycle;Max_cycle;Signal;HPM_P1;HPM_P2
2022/02/12 00:01:09;;;;;;;22.73;13.90;;;;;;;9.43;55.55;99611.33;1682306;82;21489;-58
2022/02/12 00:03:37;;;;;;;13.08;9.73;;;;;;;9.35;55.86;99613.79;1694364;82;21542;-58
2022/02/12 00:06:04;;;;;;;12.90;9.43;;;;;;;9.48;55.90;99614.64;1695093;82;21617;-58
2022/02/12 00:08:31;;;;;;;14.20;10.37;;;;;;;9.62;55.95;99620.19;1691906;83;22501;-58
2022/02/12 00:10:58;;;;;;;13.15;9.90;;;;;;;9.60;55.76;99625.11;1681156;83;21454;-58
2022/02/12 00:13:24;;;;;;;13.13;9.20;;;;;;;9.58;55.77;99636.13;1685488;82;21525;-58
2022/02/12 00:15:53;;;;;;;11.43;8.40;;;;;;;9.47;61.03;99637.38;1682819;84;21585;-58
2022/02/12 00:18:20;;;;;;;13.40;9.03;;;;;;;9.48;57.20;99631.23;1676460;84;21534;-58
2022/02/12 00:20:46;;;;;;;12.40;8.30;;;;;;;9.49;56.80;99621.15;1673672;84;22553;-58
2022/02/12 00:23:14;;;;;;;10.80;8.83;;;;;;;9.61;56.77;99622.44;1741390;80;21399;-58
2022/02/12 00:25:41;;;;;;;10.15;8.23;;;;;;;9.68;56.70;99615.16;1690939;84;21655;-57
2022/02/12 00:28:07;;;;;;;11.48;8.95;;;;;;;9.71;56.38;99601.92;1722913;82;21449;-58
2022/02/12 00:30:36;;;;;;;11.63;9.48;;;;;;;9.67;56.42;99599.87;1718579;82;21809;-58
2022/02/12 00:33:08;;;;;;;9.43;8.38;;;;;;;9.63;56.47;99593.50;1719062;80;21545;-57
2022/02/12 00:35:34;;;;;;;9.05;8.15;;;;;;;9.72;56.57;99588.73;1725890;81;21489;-57
2022/02/12 00:38:01;;;;;;;10.18;8.88;;;;;;;9.82;56.41;99586.59;1721020;82;21459;-57
2022/02/12 00:40:28;;;;;;;12.47;10.05;;;;;;;9.81;56.42;99585.33;1726388;82;21555;-57
2022/02/12 00:42:54;;;;;;;13.18;9.80;;;;;;;9.81;56.38;99577.45;1734228;80;21435;-57
2022/02/12 00:45:21;;;;;;;11.15;9.00;;;;;;;9.74;56.20;99575.55;1699606;83;22459;-57
2022/02/12 00:47:47;;;;;;;12.80;8.98;;;;;;;9.72;56.40;99574.30;1689736;83;21534;-57
2022/02/12 00:50:14;;;;;;;10.58;8.60;;;;;;;9.82;56.39;99573.45;1688402;84;21436;-57
2022/02/12 00:52:41;;;;;;;10.50;9.25;;;;;;;9.84;56.41;99574.72;1730643;82;21552;-57
2022/02/12 00:55:08;;;;;;;11.22;9.20;;;;;;;9.79;56.26;99576.20;1715788;80;21397;-58
2022/02/12 00:57:35;;;;;;;10.85;9.23;;;;;;;9.68;56.44;99578.40;1716049;82;22594;-57
2022/02/12 01:00:02;;;;;;;9.55;8.53;;;;;;;9.62;56.50;99585.22;1731934;80;21535;-57
2022/02/12 01:02:29;;;;;;;10.53;8.80;;;;;;;9.57;56.77;99584.09;1692946;83;21458;-57
2022/02/12 01:04:56;;;;;;;9.88;8.60;;;;;;;9.69;56.79;99578.81;1726376;81;21586;-57
2022/02/12 01:07:23;;;;;;;11.05;9.15;;;;;;;9.77;56.47;99574.09;1723787;82;21431;-58
2022/02/12 01:09:50;;;;;;;12.37;9.43;;;;;;;9.72;56.57;99570.36;1725888;82;22821;-58
2022/02/12 01:12:16;;;;;;;14.78;10.98;;;;;;;9.71;56.56;99572.57;1694789;84;21539;-58
2022/02/12 01:14:44;;;;;;;13.20;10.30;;;;;;;9.70;56.41;99561.69;1715754;82;21542;-57
2022/02/12 01:17:10;;;;;;;9.60;8.38;;;;;;;9.69;56.44;99572.25;1710529;81;21412;-58
2022/02/12 01:19:37;;;;;;;11.70;9.23;;;;;;;9.78;56.44;99565.78;1716459;82;21492;-58
2022/02/12 01:22:03;;;;;;;12.63;9.73;;;;;;;9.73;56.33;99565.95;1690171;83;22813;-57
2022/02/12 01:24:31;;;;;;;12.40;9.88;;;;;;;9.68;56.40;99563.53;1683075;84;21986;-57
2022/02/12 01:26:57;;;;;;;12.58;9.55;;;;;;;9.61;56.28;99564.69;1688929;83;21481;-58
2022/02/12 01:29:24;;;;;;;12.55;9.28;;;;;;;9.53;56.64;99562.80;1672088;84;21483;-58
2022/02/12 01:31:50;;;;;;;13.28;9.90;;;;;;;9.60;56.77;99553.77;1681353;84;21437;-58
2022/02/12 01:34:17;;;;;;;13.28;10.98;;;;;;;9.68;56.69;99554.34;1672135;83;21514;-58
2022/02/12 01:36:43;;;;;;;15.20;11.60;;;;;;;9.65;56.71;99557.54;1665437;84;21614;-58
2022/02/12 01:39:10;;;;;;;16.85;11.95;;;;;;;9.64;56.61;99555.35;1651695;84;21469;-58
2022/02/12 01:41:36;;;;;;;17.17;11.22;;;;;;;9.67;56.45;99547.83;1654144;86;21546;-57
2022/02/12 01:44:09;;;;;;;13.38;10.85;;;;;;;9.66;56.62;99546.11;1684505;83;21521;-58
2022/02/12 01:46:36;;;;;;;15.43;10.93;;;;;;;9.69;56.47;99547.31;1682006;82;21710;-58
2022/02/12 01:49:03;;;;;;;14.70;12.28;;;;;;;9.64;56.50;99544.84;1681582;83;21387;-58
2022/02/12 01:51:30;;;;;;;19.05;13.05;;;;;;;9.55;56.55;99545.25;1685794;83;21445;-58
2022/02/12 01:53:56;;;;;;;14.83;11.77;;;;;;;9.51;56.60;99539.27;1686718;83;20954;-58
2022/02/12 01:56:23;;;;;;;12.88;10.53;;;;;;;9.48;56.89;99542.47;1677467;83;21447;-58
2022/02/12 01:58:49;;;;;;;13.22;10.63;;;;;;;9.43;56.70;99541.79;1671532;85;22495;-58
2022/02/12 02:01:17;;;;;;;12.55;10.10;;;;;;;9.44;57.54;99536.95;1672957;83;21468;-58
2022/02/12 02:03:45;;;;;;;13.22;11.30;;;;;;;9.43;57.63;99539.16;1676951;83;21484;-58
2022/02/12 02:06:12;;;;;;;13.75;10.50;;;;;;;9.38;57.20;99530.61;1683130;82;21584;-58
2022/02/12 02:08:39;;;;;;;13.22;10.70;;;;;;;9.36;56.95;99526.73;1686267;82;21585;-58
2022/02/12 02:11:06;;;;;;;12.93;10.68;;;;;;;9.38;56.95;99527.55;1659520;84;22831;-58
2022/02/12 02:13:32;;;;;;;12.43;11.08;;;;;;;9.46;56.83;99528.09;1680262;83;21595;-58
2022/02/12 02:15:59;;;;;;;13.25;11.18;;;;;;;9.51;56.62;99532.70;1690297;84;20941;-58
2022/02/12 02:18:26;;;;;;;14.50;11.88;;;;;;;9.34;56.74;99531.19;1722228;82;21522;-58
2022/02/12 02:20:54;;;;;;;14.80;12.03;;;;;;;9.29;56.68;99540.56;1728821;80;21398;-58
2022/02/12 02:23:21;;;;;;;12.95;11.00;;;;;;;9.22;56.80;99534.31;1728633;82;22436;-58
2022/02/12 02:25:48;;;;;;;13.45;10.43;;;;;;;9.12;56.79;99542.53;1716302;82;21491;-58
2022/02/12 02:28:15;;;;;;;15.53;10.47;;;;;;;9.10;57.19;99539.11;1729902;82;21383;-58
2022/02/12 02:30:42;;;;;;;15.50;11.63;;;;;;;9.14;57.08;99545.95;1727161;80;21542;-59
2022/02/12 02:33:09;;;;;;;13.38;10.82;;;;;;;9.09;57.14;99543.10;1721072;80;21191;-58
2022/02/12 02:35:38;;;;;;;13.32;10.53;;;;;;;9.04;58.03;99554.22;1715304;82;21569;-57
2022/02/12 02:38:08;;;;;;;12.87;10.40;;;;;;;8.93;57.71;99554.17;1726942;82;21500;-58
2022/02/12 02:40:35;;;;;;;11.08;9.55;;;;;;;8.85;57.41;99566.70;1717534;82;21000;-57
2022/02/12 02:43:02;;;;;;;13.43;9.67;;;;;;;8.79;57.53;99574.80;1734932;81;21415;-58
2022/02/12 02:45:30;;;;;;;12.45;9.73;;;;;;;8.77;59.17;99572.69;1687620;83;20946;-58
2022/02/12 02:47:59;;;;;;;11.60;9.83;;;;;;;8.73;57.94;99571.95;1714701;82;22493;-58
2022/02/12 02:56:00;;;;;;;7.72;6.92;;;;;;;8.50;58.26;99581.10;1714207;82;21070;-56
2022/02/12 02:58:38;;;;;;;9.15;7.60;;;;;;;8.52;58.22;99584.52;1712261;82;21498;-57
2022/02/12 03:01:11;;;;;;;8.78;7.87;;;;;;;8.56;59.65;99586.96;1717603;82;22917;-57
2022/02/12 03:03:39;;;;;;;8.43;7.67;;;;;;;8.56;58.28;99596.14;1734476;81;21481;-58
2022/02/12 03:06:06;;;;;;;8.63;7.67;;;;;;;8.46;61.09;99598.70;1729523;82;21087;-59
2022/02/12 03:08:33;;;;;;;7.90;7.10;;;;;;;8.35;59.90;99611.27;1694621;82;21429;-56
2022/02/12 03:11:01;;;;;;;9.23;7.97;;;;;;;8.47;58.90;99617.88;1713997;82;21522;-56
2022/02/12 03:13:27;;;;;;;8.00;7.22;;;;;;;8.51;59.10;99620.36;1691339;83;22586;-56
2022/02/12 03:15:55;;;;;;;7.95;7.15;;;;;;;8.47;59.72;99630.52;1719764;80;21443;-56
2022/02/12 03:18:21;;;;;;;7.72;7.03;;;;;;;8.36;59.10;99633.92;1722789;81;21522;-56
2022/02/12 03:20:48;;;;;;;9.30;7.05;;;;;;;8.24;64.32;99637.83;1710584;82;21600;-57
2022/02/12 03:23:16;;;;;;;6.65;5.90;;;;;;;8.25;63.84;99641.29;1695143;84;21682;-56
2022/02/12 03:25:43;;;;;;;5.40;4.90;;;;;;;8.32;62.32;99650.66;1729371;81;22495;-56
2022/02/12 03:28:11;;;;;;;4.72;4.28;;;;;;;8.36;61.12;99657.08;1718880;81;20926;-56
2022/02/12 03:30:40;;;;;;;7.50;5.37;;;;;;;8.32;64.42;99658.52;1714954;82;26187;-55
2022/02/12 03:33:07;;;;;;;5.03;4.62;;;;;;;8.28;66.03;99666.94;1723166;82;21446;-56
2022/02/12 03:35:34;;;;;;;5.50;5.00;;;;;;;8.18;66.39;99665.53;1709837;82;21483;-58
2022/02/12 03:38:14;;;;;;;6.00;5.17;;;;;;;8.15;68.18;99682.19;1681433;83;21571;-55
2022/02/12 03:40:45;;;;;;;5.28;4.78;;;;;;;8.26;67.13;99684.47;1710347;80;20993;-57
2022/02/12 03:43:12;;;;;;;4.60;4.20;;;;;;;8.34;62.68;99690.77;1719110;82;21483;-57
2022/02/12 03:45:39;;;;;;;4.07;3.67;;;;;;;8.30;78.41;99702.25;1714760;82;21530;-57
2022/02/12 03:48:06;;;;;;;;;;;;;;;8.35;64.34;99695.11;1715204;82;21533;-57
2022/02/12 03:50:33;;;;;;;3.50;3.20;;;;;;;8.38;64.61;99700.23;1722247;81;22439;-57
2022/02/12 03:53:01;;;;;;;3.30;3.00;;;;;;;8.14;62.67;99717.62;1718959;82;21423;-57
2022/02/12 03:55:29;;;;;;;2.37;2.27;;;;;;;8.14;62.67;99717.62;1726561;82;22074;-58
2022/02/12 03:57:55;;;;;;;2.20;2.00;;;;;;;8.17;62.07;99726.23;1721248;82;21379;-56
2022/02/12 04:00:23;;;;;;;1.70;1.60;;;;;;;8.18;62.60;99742.34;1732786;81;21523;-57
2022/02/12 04:02:49;;;;;;;1.40;1.30;;;;;;;8.20;62.61;99742.30;1729211;82;22824;-57
2022/02/12 04:05:16;;;;;;;0.95;0.95;;;;;;;8.22;62.75;99757.97;1723937;82;21404;-57
2022/02/12 04:07:43;;;;;;;1.05;1.05;;;;;;;8.10;63.44;99769.23;1718670;81;21446;-57
2022/02/12 04:10:14;;;;;;;0.80;0.70;;;;;;;8.01;64.03;99781.30;1723961;81;21442;-58
2022/02/12 04:12:40;;;;;;;1.20;0.80;;;;;;;7.99;66.08;99796.19;1718508;82;21513;-58
2022/02/12 04:15:08;;;;;;;1.30;0.95;;;;;;;7.86;70.58;99794.38;1714394;82;22510;-58
2022/02/12 04:17:35;;;;;;;0.60;0.60;;;;;;;7.88;72.74;99798.27;1689888;83;21460;-58
2022/02/12 04:20:04;;;;;;;1.15;0.90;;;;;;;8.06;69.36;99809.52;1697641;82;21474;-58
2022/02/12 04:22:32;;;;;;;1.02;0.90;;;;;;;8.14;68.41;99814.52;1706087;83;21345;-59
2022/02/12 04:25:01;;;;;;;0.93;0.80;;;;;;;8.12;67.28;99822.42;1656998;85;20889;-59
2022/02/12 04:27:28;;;;;;;0.88;0.88;;;;;;;8.16;65.02;99829.73;1640251;86;22452;-60
2022/02/12 04:29:57;;;;;;;1.00;0.90;;;;;;;8.13;63.35;99834.59;1637941;86;21465;-59
2022/02/12 04:32:23;;;;;;;1.52;1.05;;;;;;;8.17;62.79;99837.98;1647080;85;21133;-59
2022/02/12 04:34:51;;;;;;;0.88;0.70;;;;;;;8.17;62.37;99844.10;1637112;86;21568;-56
2022/02/12 04:37:18;;;;;;;0.95;0.95;;;;;;;8.27;62.36;99858.20;1658716;85;21422;-56
2022/02/12 04:39:45;;;;;;;1.50;0.88;;;;;;;8.35;61.97;99865.41;1647229;85;22497;-56
2022/02/12 04:42:11;;;;;;;1.40;1.30;;;;;;;8.32;61.64;99870.72;1636889;85;21515;-56
2022/02/12 04:44:48;;;;;;;0.98;0.80;;;;;;;8.31;61.58;99877.73;1651322;86;20945;-56
2022/02/12 04:47:16;;;;;;;;;;;;;;;8.35;61.42;99888.98;1649121;85;21392;-58
2022/02/12 04:49:43;;;;;;;1.23;1.13;;;;;;;8.44;61.14;99896.61;1638635;86;20408;-58
2022/02/12 04:52:12;;;;;;;1.00;1.00;;;;;;;8.43;61.01;99893.56;1648832;85;22561;-58
2022/02/12 04:54:39;;;;;;;3.10;1.15;;;;;;;8.30;61.42;99898.27;1651426;86;21436;-57
2022/02/12 04:57:06;;;;;;;1.77;1.67;;;;;;;8.22;64.38;99904.20;1646307;85;21587;-57
2022/02/12 04:59:33;;;;;;;1.32;1.10;;;;;;;8.26;61.43;99909.75;1645890;86;21559;-57
2022/02/12 05:02:00;;;;;;;1.30;1.20;;;;;;;8.25;64.73;99922.45;1667144;84;21462;-56
2022/02/12 05:04:27;;;;;;;1.52;1.40;;;;;;;8.15;73.44;99930.16;1648138;85;22525;-56
2022/02/12 05:06:53;;;;;;;1.62;1.40;;;;;;;8.11;71.26;99946.86;1665623;85;21495;-56
2022/02/12 05:09:21;;;;;;;1.30;1.22;;;;;;;8.06;66.41;99954.86;1646906;84;21559;-57
2022/02/12 05:11:50;;;;;;;1.75;1.35;;;;;;;19.57;100.00;99921.65;1647137;85;21426;-57
2022/02/12 11:31:21;;;;;;;5.42;2.45;;;;;;;;;;1760991;79;23200;-59
2022/02/12 11:34:05;;;;;;;3.58;2.10;;;;;;;;;;1733272;81;21422;-58
2022/02/12 11:36:32;;;;;;;5.70;2.08;;;;;;;;;;1733692;81;23058;-58
2022/02/12 11:39:07;;;;;;;6.40;3.00;;;;;;;;;;1759533;80;21417;-58
2022/02/12 11:41:33;;;;;;;6.58;3.58;;;;;;;;;;1774670;78;21559;-58
2022/02/12 11:44:01;;;;;;;8.03;3.75;;;;;;;;;;1768728;78;21472;-59
2022/02/12 11:46:45;;;;;;;5.05;2.90;;;;;;;;;;1768831;80;21461;-58
2022/02/12 11:49:28;;;;;;;5.87;2.80;;;;;;;;;;1771255;80;23061;-57
2022/02/12 11:51:54;;;;;;;2.80;2.20;;;;;;;;;;1777976;79;21490;-58
2022/02/12 11:54:25;;;;;;;4.78;2.22;;;;;;;;;;1770632;79;21364;-59
2022/02/12 11:56:52;;;;;;;4.92;1.87;;;;;;;;;;1754220;80;21326;-57
2022/02/12 11:59:18;;;;;;;4.87;3.08;;;;;;;;;;1766674;79;21406;-57
2022/02/12 12:01:44;;;;;;;8.25;3.17;;;;;;;;;;1769692;78;23345;-57
2022/02/12 12:04:15;;;;;;;4.42;2.80;;;;;;;;;;1769395;79;21464;-58
2022/02/12 12:07:02;;;;;;;6.00;2.75;;;;;;;;;;1773813;80;21409;-59
2022/02/12 12:09:31;;;;;;;6.60;2.80;;;;;;;;;;1766981;80;21580;-57
2022/02/12 12:12:11;;;;;;;9.48;3.52;;;;;;;;;;1774127;80;21338;-57
2022/02/12 12:14:38;;;;;;;4.75;2.60;;;;;;;;;;1771506;79;23313;-58
2022/02/12 12:17:05;;;;;;;5.17;3.67;;;;;;;;;;1769224;80;21468;-58
2022/02/12 12:19:32;;;;;;;4.08;2.87;;;;;;;;;;1778106;80;21448;-58
2022/02/12 12:21:59;;;;;;;8.48;3.85;;;;;;;;;;1771742;79;21361;-57
2022/02/12 12:24:25;;;;;;;7.60;3.03;;;;;;;;;;1770741;79;21480;-57
2022/02/12 12:26:52;;;;;;;4.87;2.70;;;;;;;;;;1770952;80;23388;-58
2022/02/12 12:32:05;;;;;;;9.65;2.75;;;;;;;;;;1765394;80;21407;-57
2022/02/12 12:34:31;;;;;;;5.22;2.35;;;;;;;;;;1764772;80;21523;-57
2022/02/12 12:36:57;;;;;;;5.37;2.85;;;;;;;;;;1765666;79;21505;-57
2022/02/12 12:39:35;;;;;;;4.17;2.70;;;;;;;;;;1760748;79;22140;-57
2022/02/12 12:42:02;;;;;;;3.85;2.47;;;;;;;;;;1763349;80;21336;-58
2022/02/12 12:44:28;;;;;;;5.22;2.27;;;;;;;;;;1766103;80;21540;-57
2022/02/12 12:46:55;;;;;;;3.55;2.33;;;;;;;;;;1767773;79;21276;-58
2022/02/12 12:49:27;;;;;;;6.12;3.20;;;;;;;;;;1762850;80;21430;-58
2022/02/12 12:51:53;;;;;;;7.78;3.27;;;;;;;;;;1758590;80;22897;-59
2022/02/12 12:54:32;;;;;;;10.20;3.10;;;;;;;;;;1767543;79;21315;-58
2022/02/12 12:56:58;;;;;;;4.28;2.72;;;;;;;;;;1757373;80;21549;-57
2022/02/12 12:59:25;;;;;;;4.92;2.72;;;;;;;;;;1767552;80;21458;-58
2022/02/12 13:01:55;;;;;;;5.65;2.45;;;;;;;;;;1763203;80;21462;-58
2022/02/12 13:04:21;;;;;;;4.55;2.10;;;;;;;;;;1756725;80;23055;-58
2022/02/12 13:06:54;;;;;;;9.35;2.83;;;;;;;;;;1769186;80;21228;-58
2022/02/12 13:09:20;;;;;;;4.08;2.40;;;;;;;;;;1765592;79;21412;-58
2022/02/12 13:11:47;;;;;;;4.12;2.85;;;;;;;;;;1724518;81;21559;-57
2022/02/12 13:14:13;;;;;;;4.92;2.85;;;;;;;;;;1739345;81;21420;-57
2022/02/12 13:16:42;;;;;;;4.03;3.17;;;;;;;;;;1734364;79;21519;-57
2022/02/12 13:19:13;;;;;;;3.80;3.20;;;;;;;;;;1734713;81;28516;-57
2022/02/12 13:21:46;;;;;;;5.72;3.17;;;;;;;;;;1688482;84;21350;-58
2022/02/12 13:24:15;;;;;;;3.85;2.70;;;;;;;;;;1721185;82;21563;-57
2022/02/12 13:26:43;;;;;;;6.90;3.12;;;;;;;;;;1727222;82;22043;-57
2022/02/12 13:29:23;;;;;;;7.33;3.95;;;;;;;;;;1712468;82;23115;-57
2022/02/12 13:31:50;;;;;;;6.55;3.50;;;;;;;;;;1726311;82;21302;-58
2022/02/12 13:34:18;;;;;;;6.37;3.60;;;;;;;;;;1721559;82;21505;-58
2022/02/12 13:36:44;;;;;;;5.40;3.87;;;;;;;;;;1729234;81;28305;-58
2022/02/12 13:39:12;;;;;;;7.20;3.33;;;;;;;;;;1726765;81;21409;-58
2022/02/12 13:41:39;;;;;;;6.20;3.45;;;;;;;;;;1723488;81;23024;-58
2022/02/12 13:44:05;;;;;;;7.60;4.00;;;;;;;;;;1728895;81;21426;-60
2022/02/12 13:46:35;;;;;;;9.78;4.20;;;;;;;;;;1728034;81;21430;-58
2022/02/12 13:49:16;;;;;;;5.33;3.47;;;;;;;;;;1702734;81;21578;-58
2022/02/12 13:51:55;;;;;;;5.92;3.30;;;;;;;;;;1736843;81;20937;-56
2022/02/12 13:54:22;;;;;;;6.15;2.95;;;;;;;;;;1731329;81;21748;-58
2022/02/12 13:56:52;;;;;;;6.28;2.92;;;;;;;;;;1718718;82;21534;-57
2022/02/12 13:59:19;;;;;;;3.42;2.37;;;;;;;;;;1733819;81;21404;-57
2022/02/12 14:01:46;;;;;;;5.17;2.37;;;;;;;;;;1743518;81;21488;-57
2022/02/12 14:04:13;;;;;;;4.12;2.27;;;;;;;;;;1727245;81;21549;-57
2022/02/12 14:06:39;;;;;;;2.67;2.37;;;;;;;;;;1729664;81;21624;-57
2022/02/12 14:09:07;;;;;;;4.97;3.12;;;;;;;;;;1739634;81;21412;-58
2022/02/12 14:11:35;;;;;;;3.58;2.67;;;;;;;;;;1714592;80;21488;-57
2022/02/12 14:14:03;;;;;;;3.60;2.77;;;;;;;;;;1734782;81;21555;-57
2022/02/12 14:16:29;;;;;;;6.33;3.60;;;;;;;;;;1721368;81;21408;-57
2022/02/12 14:18:56;;;;;;;8.40;3.77;;;;;;;;;;1734186;81;22728;-57
2022/02/12 14:21:22;;;;;;;8.00;3.70;;;;;;;;;;1737825;81;21418;-57
2022/02/12 14:23:49;;;;;;;3.80;2.83;;;;;;;;;;1721086;81;21605;-57
2022/02/12 14:26:15;;;;;;;7.78;3.98;;;;;;;;;;1720896;81;21470;-57
2022/02/12 14:28:41;;;;;;;6.45;3.20;;;;;;;;;;1734148;81;21515;-57
2022/02/12 14:31:07;;;;;;;6.55;3.95;;;;;;;;;;1738403;80;22924;-57
2022/02/12 14:33:34;;;;;;;5.33;4.00;;;;;;;;;;1738579;80;21477;-57
2022/02/12 14:36:01;;;;;;;5.20;3.20;;;;;;;;;;1745760;80;21548;-56
2022/02/12 14:38:31;;;;;;;5.85;3.77;;;;;;;;;;1745256;80;21391;-58
2022/02/12 14:40:59;;;;;;;6.87;3.75;;;;;;;;;;1744217;80;21492;-57
2022/02/12 14:43:26;;;;;;;6.80;4.45;;;;;;;;;;1731759;82;23088;-57
2022/02/12 14:45:52;;;;;;;7.10;4.25;;;;;;;;;;1729575;81;21545;-57
2022/02/12 14:48:18;;;;;;;9.98;3.90;;;;;;;;;;1735840;80;21592;-57
2022/02/12 14:50:45;;;;;;;5.70;3.72;;;;;;;;;;1735393;80;21443;-57
2022/02/12 14:53:12;;;;;;;7.62;4.42;;;;;;;;;;1698360;82;21569;-57
2022/02/12 14:55:39;;;;;;;9.70;4.28;;;;;;;;;;1701324;83;22985;-57
2022/02/12 14:58:05;;;;;;;7.83;4.28;;;;;;;;;;1698431;83;21431;-57
2022/02/12 15:00:32;;;;;;;6.37;3.90;;;;;;;;;;1698643;83;21037;-57
2022/02/12 15:02:59;;;;;;;6.80;4.03;;;;;;;;;;1697600;83;21451;-57
2022/02/12 15:05:26;;;;;;;9.63;4.70;;;;;;;;;;1699819;83;21787;-58
2022/02/12 15:07:52;;;;;;;9.60;4.63;;;;;;;;;;1705147;83;23258;-56
2022/02/12 15:10:19;;;;;;;13.00;5.67;;;;;;;;;;1703053;83;21705;-57
2022/02/12 15:12:46;;;;;;;10.98;5.92;;;;;;;;;;1705589;83;21453;-56
2022/02/12 15:15:13;;;;;;;10.93;6.08;;;;;;;;;;1707079;83;21418;-56
2022/02/12 15:17:40;;;;;;;9.60;5.85;;;;;;;;;;1704310;83;20888;-56
2022/02/12 15:20:06;;;;;;;11.03;6.45;;;;;;;;;;1704648;83;22047;-57
2022/02/12 15:22:33;;;;;;;14.70;6.72;;;;;;;;;;1705136;83;21481;-57
2022/02/12 15:24:59;;;;;;;14.35;7.03;;;;;;;;;;1702649;83;21451;-57
2022/02/12 15:27:25;;;;;;;12.00;6.35;;;;;;;;;;1701315;83;21491;-57
2022/02/12 15:29:51;;;;;;;14.55;6.70;;;;;;;;;;1705034;83;21367;-56
2022/02/12 15:32:17;;;;;;;11.85;6.72;;;;;;;;;;1705154;83;23280;-57
2022/02/12 15:34:46;;;;;;;13.17;8.13;;;;;;;;;;1705365;83;21696;-56
2022/02/12 15:37:13;;;;;;;13.10;7.33;;;;;;;;;;1707864;83;21384;-56
2022/02/12 15:39:39;;;;;;;12.43;8.65;;;;;;;;;;1706577;83;21520;-56
2022/02/12 15:42:05;;;;;;;11.85;7.25;;;;;;;;;;1706102;83;21526;-56
2022/02/12 15:44:32;;;;;;;10.10;6.40;;;;;;;;;;1705637;83;22021;-56
2022/02/12 15:46:58;;;;;;;8.68;5.65;;;;;;;;;;1703371;83;21489;-56
2022/02/12 15:49:24;;;;;;;10.98;6.20;;;;;;;;;;1706245;83;21656;-57
2022/02/12 15:51:53;;;;;;;16.17;8.55;;;;;;;;;;1699931;83;21561;-57
2022/02/12 15:54:19;;;;;;;17.05;10.15;;;;;;;;;;1698868;83;20947;-57
2022/02/12 15:56:45;;;;;;;22.93;11.85;;;;;;;;;;1700670;83;23088;-58
2022/02/12 15:59:12;;;;;;;18.98;10.55;;;;;;;;;;1695669;83;21515;-57
2022/02/12 16:01:38;;;;;;;11.40;7.20;;;;;;;;;;1702269;83;21426;-58
2022/02/12 16:04:05;;;;;;;13.45;6.35;;;;;;;;;;1696359;83;21451;-57
2022/02/12 16:06:33;;;;;;;9.28;4.65;;;;;;;;;;1700506;83;21463;-57
2022/02/12 16:08:59;;;;;;;7.87;4.58;;;;;;;;;;1692771;83;22032;-58
2022/02/12 16:11:25;;;;;;;5.65;3.98;;;;;;;;;;1700255;83;21430;-57
2022/02/12 16:13:51;;;;;;;10.68;3.90;;;;;;;;;;1707602;83;20871;-57
2022/02/12 16:16:17;;;;;;;5.83;3.58;;;;;;;;;;1699915;83;21750;-57
2022/02/12 16:18:43;;;;;;;8.48;3.98;;;;;;;;;;1705545;83;21450;-57
2022/02/12 16:21:10;;;;;;;5.97;3.50;;;;;;;;;;1699162;83;23326;-57
2022/02/12 16:23:36;;;;;;;8.13;4.58;;;;;;;;;;1696417;83;21487;-57
2022/02/12 16:26:02;;;;;;;8.35;4.47;;;;;;;;;;1697509;83;21496;-57
2022/02/12 16:28:28;;;;;;;13.80;5.67;;;;;;;;;;1707634;83;21596;-57
2022/02/12 16:30:55;;;;;;;14.13;6.08;;;;;;;;;;1694785;83;21416;-58
2022/02/12 16:33:30;;;;;;;11.68;5.92;;;;;;;;;;1695493;83;23024;-58
2022/02/12 16:35:52;;;;;;;18.37;9.73;;;;;;;;;;1699481;83;21549;-57
2022/02/12 16:38:18;;;;;;;22.25;10.15;;;;;;;;;;1691637;83;21416;-58
2022/02/12 16:40:44;;;;;;;25.40;13.53;;;;;;;;;;1700685;83;21495;-58
2022/02/12 16:43:11;;;;;;;24.15;12.10;;;;;;;;;;1702182;83;21423;-58
2022/02/12 16:45:37;;;;;;;20.40;11.63;;;;;;;;;;1704686;83;23233;-58
2022/02/12 16:48:03;;;;;;;15.23;8.85;;;;;;;;;;1698343;83;21452;-58
2022/02/12 16:50:29;;;;;;;14.83;7.60;;;;;;;;;;1705627;83;20911;-57
2022/02/12 16:52:56;;;;;;;13.68;7.20;;;;;;;;;;1710459;83;21489;-57
2022/02/12 16:55:25;;;;;;;18.70;7.53;;;;;;;;;;1706137;83;21541;-58
2022/02/12 16:57:50;;;;;;;13.83;6.55;;;;;;;;;;1708075;83;23274;-58
2022/02/12 17:00:17;;;;;;;13.32;6.35;;;;;;;;;;1696670;83;21637;-58
2022/02/12 17:02:46;;;;;;;13.25;6.70;;;;;;;;;;1700379;83;21457;-58
2022/02/12 17:05:12;;;;;;;12.55;6.40;;;;;;;;;;1700141;83;21714;-58
2022/02/12 17:07:39;;;;;;;14.03;6.15;;;;;;;;;;1699879;82;21436;-58
2022/02/12 17:10:05;;;;;;;10.95;6.58;;;;;;;;;;1701187;83;23328;-57
2022/02/12 17:12:32;;;;;;;11.93;6.12;;;;;;;;;;1702656;83;21218;-57
2022/02/12 17:15:01;;;;;;;15.98;7.50;;;;;;;;;;1703775;83;20974;-57
2022/02/12 17:17:27;;;;;;;14.55;7.40;;;;;;;;;;1707126;83;21841;-57
2022/02/12 17:19:54;;;;;;;12.70;6.80;;;;;;;;;;1708157;83;21428;-58
2022/02/12 17:22:21;;;;;;;12.28;6.97;;;;;;;;;;1704538;83;23100;-57
2022/02/12 17:24:47;;;;;;;13.45;6.05;;;;;;;;;;1687066;83;21396;-57
2022/02/12 17:27:13;;;;;;;10.53;6.20;;;;;;;;;;1691732;83;21375;-57
2022/02/12 17:29:40;;;;;;;9.60;6.12;;;;;;;;;;1704136;83;21483;-57
2022/02/12 17:32:07;;;;;;;15.80;7.10;;;;;;;;;;1706138;83;21561;-59
2022/02/12 17:34:33;;;;;;;10.63;7.00;;;;;;;;;;1703488;83;22076;-58
2022/02/12 17:36:59;;;;;;;12.05;6.72;;;;;;;;;;1707790;83;21515;-58
2022/02/12 17:39:26;;;;;;;13.25;6.70;;;;;;;;;;1703944;83;21400;-58
2022/02/12 17:41:52;;;;;;;10.65;6.65;;;;;;;;;;1699835;83;21754;-58
2022/02/12 17:44:18;;;;;;;12.28;6.62;;;;;;;;;;1703163;83;21427;-58
2022/02/12 17:46:47;;;;;;;12.20;6.40;;;;;;;;;;1702666;83;23094;-58
2022/02/12 17:49:13;;;;;;;9.20;6.20;;;;;;;;;;1699346;83;21356;-59
2022/02/12 17:51:40;;;;;;;12.82;7.05;;;;;;;;;;1700723;83;21471;-58
2022/02/12 17:54:06;;;;;;;11.55;6.75;;;;;;;;;;1706788;83;21459;-58
2022/02/12 17:56:32;;;;;;;11.30;6.95;;;;;;;;;;1705340;83;21456;-58
2022/02/12 17:58:58;;;;;;;11.90;6.87;;;;;;;;;;1701527;83;23057;-57
2022/02/12 18:01:26;;;;;;;11.78;6.47;;;;;;;;;;1695374;83;21480;-58
2022/02/12 18:03:53;;;;;;;11.30;6.90;;;;;;;;;;1707156;83;21390;-57
2022/02/12 18:06:19;;;;;;;10.75;7.40;;;;;;;;;;1706990;83;21558;-59
2022/02/12 18:11:31;;;;;;;9.58;6.50;;;;;;;;;;1708155;83;23071;-58
2022/02/12 18:13:57;;;;;;;11.83;7.25;;;;;;;;;;1708040;83;21413;-58
2022/02/12 18:16:23;;;;;;;11.05;6.17;;;;;;;;;;1705504;83;21494;-58
2022/02/12 18:18:50;;;;;;;11.05;6.12;;;;;;;;;;1704856;83;21742;-58
2022/02/12 18:21:16;;;;;;;13.55;6.10;;;;;;;;;;1708196;83;21373;-58
2022/02/12 18:23:43;;;;;;;10.05;5.60;;;;;;;;;;1707708;83;23257;-57
2022/02/12 18:26:09;;;;;;;6.87;4.92;;;;;;;;;;1706614;83;21483;-59
2022/02/12 18:28:35;;;;;;;8.20;5.22;;;;;;;;;;1707914;83;21472;-58
2022/02/12 18:31:02;;;;;;;8.78;5.03;;;;;;;;;;1707271;83;21475;-58
2022/02/12 18:33:28;;;;;;;6.03;4.25;;;;;;;;;;1703653;83;21413;-58
2022/02/12 18:35:54;;;;;;;8.35;4.67;;;;;;;;;;1700674;83;21619;-57
2022/02/12 18:38:20;;;;;;;8.45;4.97;;;;;;;;;;1702308;83;21346;-58
2022/02/12 18:40:51;;;;;;;10.85;5.45;;;;;;;;;;1699888;83;20938;-59
2022/02/12 18:43:19;;;;;;;10.05;5.85;;;;;;;;;;1707813;83;21752;-58
2022/02/12 18:45:45;;;;;;;9.48;6.65;;;;;;;;;;1701782;83;21485;-59
2022/02/12 18:48:12;;;;;;;13.30;7.17;;;;;;;;;;1698599;83;23237;-58
2022/02/12 18:50:38;;;;;;;10.35;7.33;;;;;;;;;;1704427;83;21503;-58
2022/02/12 18:53:05;;;;;;;9.50;6.65;;;;;;;;;;1701950;83;20938;-57
2022/02/12 18:55:31;;;;;;;13.05;7.67;;;;;;;;;;1703101;83;21468;-58
2022/02/12 18:57:59;;;;;;;12.25;7.37;;;;;;;;;;1702954;83;21028;-58
2022/02/12 19:00:25;;;;;;;12.28;7.70;;;;;;;;;;1704021;83;23075;-57
2022/02/12 19:02:51;;;;;;;10.05;6.72;;;;;;;;;;1702534;83;21458;-57
2022/02/12 19:05:18;;;;;;;8.00;5.75;;;;;;;;;;1705597;83;21517;-58
2022/02/12 19:07:44;;;;;;;9.93;5.90;;;;;;;;;;1706707;83;21472;-57
2022/02/12 19:10:11;;;;;;;8.30;6.00;;;;;;;;;;1702401;83;20871;-56
2022/02/12 19:12:37;;;;;;;9.20;5.53;;;;;;;;;;1707577;83;23018;-56
2022/02/12 19:15:04;;;;;;;9.83;5.72;;;;;;;;;;1705366;83;21455;-56
2022/02/12 19:17:30;;;;;;;11.45;6.75;;;;;;;;;;1705890;83;21436;-56
2022/02/12 19:19:59;;;;;;;9.20;7.03;;;;;;;;;;1702668;83;21707;-56
2022/02/12 19:22:24;;;;;;;;;;;;;;;;;;1709679;83;21011;-56
2022/02/12 19:24:50;;;;;;;12.98;7.03;;;;;;;;;;1702093;83;21559;-56
2022/02/12 19:27:20;;;;;;;12.47;7.22;;;;;;;;;;1703779;83;21529;-56
2022/02/12 19:29:47;;;;;;;13.55;7.70;;;;;;;;;;1701104;83;21529;-56
2022/02/12 19:32:13;;;;;;;12.50;7.60;;;;;;;;;;1704700;82;21381;-56
2022/02/12 19:34:40;;;;;;;14.28;8.30;;;;;;;;;;1703364;83;21395;-55
2022/02/12 19:37:07;;;;;;;16.87;8.58;;;;;;;;;;1705094;83;22905;-57
2022/02/12 19:42:35;;;;;;;13.93;8.65;;;;;;;;;;1692027;83;20962;-56
2022/02/12 19:45:02;;;;;;;16.17;9.80;;;;;;;;;;1744774;81;21474;-56
2022/02/12 19:47:29;;;;;;;18.67;9.48;;;;;;;;;;1743818;81;21473;-57
2022/02/12 19:49:55;;;;;;;17.25;8.95;;;;;;;;;;1746772;81;22571;-56